»·PEaware :: UAL935 KCOS-KDEN

UAL935 :: KCOS-KDEN

FLIGHT INFORMATION

Flight Status: Arrived
Operator:
United Airlines
More flights by this operator :: More flights under this callsign
Pilot: Michael S. (20314)
Aircraft: AIRBUS A321
(A321)
More flights by this aircraft type
Origin: KCOS City Of Colorado Springs Mun
United States
Destination: KDEN Denver Intl
United States
More flights between these airports :: More routes between these airports
Route: FQF
File this flight plan on PilotEdge
Remarks: RMK / SIMBRIEF
Altitude:
(Current/Filed)
12,000ft
Speed:
(Current/Filed)
352kts
Departed: 21-Nov-21 01:00 PM
Arrived: 21-Nov-21 01:29 PM
Distance/Time
Traveled:
63nm/0:29
Distance/Time
To Go:
Arrived

Flight Plot

Page will automatically refresh every two minutes.


Map Options




Map Legend


Flown Route
Filed Route
Departure Airport
Arrival Airport
Navaid (VOR, NDB)
Fix

Horizontal Profiles

Position Reports

Time Latitude Longitude Heading Altitude Ground
Speed
21-Nov-21 12:38 38.799347 -104.700132 259 6196ft 0kts
21-Nov-21 12:39 38.799347 -104.700132 259 6196ft 0kts
21-Nov-21 12:40 38.799347 -104.700132 259 6196ft 0kts
21-Nov-21 12:41 38.799347 -104.700132 259 6196ft 0kts
21-Nov-21 12:42 38.799347 -104.700132 259 6196ft 0kts
21-Nov-21 12:43 38.799347 -104.700132 259 6196ft 0kts
21-Nov-21 12:44 38.799347 -104.700132 259 6196ft 0kts
21-Nov-21 12:45 38.799348 -104.700124 258 6196ft 0kts
21-Nov-21 12:46 38.799055 -104.699606 340 6196ft 2kts
21-Nov-21 12:47 38.798882 -104.699579 0 6196ft 0kts
21-Nov-21 12:48 38.798882 -104.699579 0 6196ft 0kts
21-Nov-21 12:49 38.798882 -104.699579 0 6196ft 0kts
21-Nov-21 12:50 38.798931 -104.699579 0 6196ft 0kts
21-Nov-21 12:51 38.800370 -104.697864 68 6196ft 10kts
21-Nov-21 12:52 38.803042 -104.696729 70 6196ft 9kts
21-Nov-21 12:53 38.803119 -104.691645 89 6196ft 18kts
21-Nov-21 12:54 38.804156 -104.687656 0 6196ft 13kts
21-Nov-21 12:55 38.809032 -104.687638 359 6196ft 19kts
21-Nov-21 12:56 38.814416 -104.687634 0 6196ft 18kts
21-Nov-21 12:57 38.815919 -104.687118 83 6196ft 0kts
21-Nov-21 12:58 38.815163 -104.685745 178 6196ft 16kts
21-Nov-21 12:59 38.778449 -104.685900 180 8019ft 167kts
21-Nov-21 13:00 38.728008 -104.686081 178 9412ft 209kts
21-Nov-21 13:01 38.701259 -104.620244 78 10040ft 289kts
21-Nov-21 13:02 38.729486 -104.518326 35 11236ft 325kts
21-Nov-21 13:03 38.815844 -104.507216 352 12026ft 321kts
21-Nov-21 13:04 38.904206 -104.519011 353 12028ft 319kts
21-Nov-21 13:05 38.992580 -104.530478 353 12026ft 319kts
21-Nov-21 13:06 39.080733 -104.541928 352 12025ft 318kts
21-Nov-21 13:07 39.168891 -104.553373 353 12026ft 318kts
21-Nov-21 13:08 39.251819 -104.587258 327 12023ft 319kts
21-Nov-21 13:09 39.326909 -104.648937 327 12004ft 320kts
21-Nov-21 13:10 39.402227 -104.710739 327 11969ft 322kts
21-Nov-21 13:11 39.483933 -104.754708 347 11955ft 323kts
21-Nov-21 13:12 39.571929 -104.778000 347 11954ft 323kts
21-Nov-21 13:13 39.660118 -104.801232 347 11952ft 323kts
21-Nov-21 13:14 39.747999 -104.824306 347 11843ft 325kts
21-Nov-21 13:15 39.832014 -104.846503 347 10511ft 284kts
21-Nov-21 13:16 39.860709 -104.850813 356 10035ft 286kts
21-Nov-21 13:18 40.064903 -104.858697 357 7976ft 259kts
21-Nov-21 13:19 40.134341 -104.860776 357 7983ft 249kts
21-Nov-21 13:20 40.186803 -104.819262 87 7987ft 252kts
21-Nov-21 13:21 40.151441 -104.744664 137 7989ft 242kts
21-Nov-21 13:22 40.104786 -104.695909 173 7990ft 199kts
21-Nov-21 13:23 40.049115 -104.694309 180 8008ft 200kts
21-Nov-21 13:24 39.993527 -104.694904 181 7373ft 200kts
21-Nov-21 13:25 39.945269 -104.695495 180 6396ft 155kts
21-Nov-21 13:26 39.902087 -104.696006 178 5631ft 154kts
21-Nov-21 13:27 39.870462 -104.696315 180 5443ft 57kts
21-Nov-21 13:28 39.860720 -104.690867 133 5443ft 21kts
21-Nov-21 13:29 39.860341 -104.683704 91 5443ft 19kts
21-Nov-21 13:30 39.860305 -104.676932 90 5443ft 18kts
21-Nov-21 13:31 39.860229 -104.673652 96 5443ft 6kts
21-Nov-21 13:32 39.859390 -104.672941 179 5443ft 0kts
21-Nov-21 13:33 39.860335 -104.680593 89 5443ft 18kts

Navigation Log

Ident Type
Flight plan parsing failed, navigation log unavailable